Time;durP1;ratioP1;P1;durP2;ratioP2;P2;SDS_P1;SDS_P2;PMS_P1;PMS_P2;Temp;Humidity;BMP_temperature;BMP_pressure;BME280_temperature;BME280_humidity;BME280_pressure;Samples;Min_cycle;Max_cycle;Signal;HPM_P1;HPM_P2
2022/01/25 00:27:36;;;;;;;64.30;46.55;;;4.00;99.90;;;;;;5040514;28;20037;-66
2022/01/25 00:30:21;;;;;;;60.97;44.97;;;4.00;99.90;;;;;;5041327;28;20044;-66
2022/01/25 00:32:45;;;;;;;63.40;46.38;;;4.00;99.90;;;;;;5043073;28;20500;-66
2022/01/25 00:35:10;;;;;;;63.80;46.67;;;4.00;99.90;;;;;;5037394;28;20041;-66
2022/01/25 00:37:36;;;;;;;63.92;47.08;;;3.90;99.90;;;;;;5032054;28;20033;-66
2022/01/25 00:40:03;;;;;;;59.65;45.47;;;4.00;99.90;;;;;;5040979;28;20041;-66
2022/01/25 00:42:29;;;;;;;64.35;47.45;;;4.00;99.90;;;;;;5040233;28;20131;-66
2022/01/25 00:44:55;;;;;;;60.13;45.85;;;4.00;99.90;;;;;;5045686;28;20112;-66
2022/01/25 00:47:21;;;;;;;61.42;45.88;;;4.00;99.90;;;;;;5043233;28;20037;-66
2022/01/25 00:49:52;;;;;;;63.30;46.30;;;4.00;99.90;;;;;;5042855;28;20094;-66
2022/01/25 00:54:52;;;;;;;62.13;46.45;;;4.00;99.90;;;;;;5041848;28;20054;-66
2022/01/25 00:57:17;;;;;;;61.88;45.17;;;4.00;99.90;;;;;;5040416;28;20049;-66
2022/01/25 00:59:44;;;;;;;55.83;41.60;;;4.00;99.90;;;;;;5040062;28;20052;-66
2022/01/25 01:02:13;;;;;;;63.65;46.55;;;3.90;99.90;;;;;;5045475;28;20448;-66
2022/01/25 01:04:41;;;;;;;62.92;46.45;;;4.00;99.90;;;;;;5041724;28;20493;-66
2022/01/25 01:07:10;;;;;;;63.80;46.80;;;4.00;99.90;;;;;;5047726;28;20044;-66
2022/01/25 01:09:38;;;;;;;63.08;46.03;;;3.90;99.90;;;;;;5046368;28;20037;-66
2022/01/25 01:12:11;;;;;;;63.85;46.15;;;4.00;99.90;;;;;;5044036;28;20493;-67
2022/01/25 01:14:53;;;;;;;60.60;44.88;;;4.00;99.90;;;;;;5035949;28;20076;-67
2022/01/25 01:43:45;;;;;;;63.22;46.95;;;4.00;99.90;;;;;;5041270;28;20052;-66
2022/01/25 01:51:30;;;;;;;64.40;46.55;;;3.90;99.90;;;;;;5042874;28;20056;-66
2022/01/25 01:53:58;;;;;;;63.33;46.72;;;3.90;99.90;;;;;;5036922;28;20048;-66
2022/01/25 01:56:24;;;;;;;64.70;46.28;;;3.90;99.90;;;;;;5043121;28;20607;-66
2022/01/25 01:58:56;;;;;;;64.28;47.67;;;3.90;99.90;;;;;;5038729;28;20041;-66
2022/01/25 02:01:24;;;;;;;69.25;48.45;;;3.90;99.90;;;;;;5039412;28;20045;-66
2022/01/25 02:03:51;;;;;;;67.90;48.28;;;3.90;99.90;;;;;;5046016;28;20064;-67
2022/01/25 02:06:17;;;;;;;65.28;48.70;;;3.90;99.90;;;;;;5040038;28;20408;-66
2022/01/25 02:08:43;;;;;;;64.50;46.45;;;3.90;99.90;;;;;;5040375;28;20099;-66
2022/01/25 02:11:09;;;;;;;63.47;46.55;;;3.90;99.90;;;;;;5044856;28;20040;-66
2022/01/25 02:13:37;;;;;;;64.60;45.50;;;3.90;99.90;;;;;;5040811;28;20141;-66
2022/01/25 02:16:07;;;;;;;64.15;46.08;;;3.90;99.90;;;;;;5041846;28;20531;-66
2022/01/25 02:24:02;;;;;;;64.45;45.63;;;3.80;99.90;;;;;;5037169;28;20558;-66
2022/01/25 02:26:28;;;;;;;64.60;46.08;;;3.90;99.90;;;;;;5042720;28;20070;-66
2022/01/25 02:28:53;;;;;;;61.83;44.17;;;3.90;99.90;;;;;;5039638;28;20060;-66
2022/01/25 02:31:19;;;;;;;64.40;46.78;;;3.90;99.90;;;;;;5042271;28;20060;-66
2022/01/25 02:33:45;;;;;;;61.95;46.58;;;3.80;99.90;;;;;;5042420;28;20542;-66
2022/01/25 02:36:26;;;;;;;62.70;45.03;;;3.90;99.90;;;;;;5040971;28;20028;-66
2022/01/25 02:38:52;;;;;;;63.53;46.00;;;3.90;99.90;;;;;;5040712;28;20128;-66
2022/01/25 02:41:18;;;;;;;64.05;45.65;;;3.90;99.90;;;;;;5041509;28;20080;-66
2022/01/25 02:43:46;;;;;;;65.05;47.38;;;3.90;99.90;;;;;;5040733;28;20103;-66
2022/01/25 02:49:05;;;;;;;63.63;46.70;;;3.90;99.90;;;;;;5040368;28;21819;-66
2022/01/25 02:51:36;;;;;;;65.53;46.35;;;3.90;99.90;;;;;;5040490;28;20492;-66
2022/01/25 02:54:04;;;;;;;65.55;46.30;;;3.90;99.90;;;;;;5041481;28;20041;-66
2022/01/25 02:56:30;;;;;;;64.10;46.08;;;3.90;99.90;;;;;;5038505;28;20037;-66
2022/01/25 02:58:56;;;;;;;62.85;45.72;;;3.90;99.90;;;;;;5039336;28;20041;-66
2022/01/25 03:01:22;;;;;;;69.00;46.78;;;3.90;99.90;;;;;;5042957;28;20063;-66
2022/01/25 03:03:50;;;;;;;62.78;45.88;;;3.90;99.90;;;;;;5041567;28;20044;-66
2022/01/25 03:06:18;;;;;;;66.10;46.30;;;3.90;99.90;;;;;;5038438;28;20039;-66
2022/01/25 03:08:45;;;;;;;66.00;47.90;;;3.90;99.90;;;;;;5042296;28;20048;-66
2022/01/25 03:11:10;;;;;;;65.65;48.13;;;3.90;99.90;;;;;;5040704;28;20034;-66
2022/01/25 03:13:49;;;;;;;66.88;47.05;;;3.90;99.90;;;;;;5038280;28;20779;-66
2022/01/25 03:17:24;;;;;;;67.07;45.15;;;3.90;99.90;;;;;;5040427;28;20041;-66
2022/01/25 03:22:07;;;;;;;65.28;46.78;;;3.80;99.90;;;;;;5040316;28;20882;-66
2022/01/25 03:24:33;;;;;;;64.22;46.95;;;3.80;99.90;;;;;;5036836;28;20148;-66
2022/01/25 03:26:58;;;;;;;66.55;47.35;;;3.90;99.90;;;;;;5041851;28;20136;-66
2022/01/25 03:29:24;;;;;;;64.40;46.78;;;3.90;99.90;;;;;;5043464;28;20123;-66
2022/01/25 03:31:50;;;;;;;65.45;46.88;;;3.80;99.90;;;;;;5041078;28;20398;-66
2022/01/25 03:34:16;;;;;;;68.38;47.75;;;3.80;99.90;;;;;;5041915;28;20029;-66
2022/01/25 03:36:42;;;;;;;73.18;49.80;;;3.80;99.90;;;;;;5040326;28;20505;-66
2022/01/25 03:39:08;;;;;;;68.13;48.17;;;3.90;99.90;;;;;;5039414;28;20120;-67
2022/01/25 03:41:35;;;;;;;71.03;48.83;;;3.80;99.90;;;;;;5040995;28;20128;-66
2022/01/25 03:44:01;;;;;;;67.22;47.05;;;3.80;99.90;;;;;;5041119;28;20611;-66
2022/01/25 03:46:37;;;;;;;68.35;47.58;;;3.80;99.90;;;;;;5036704;28;20040;-66
2022/01/25 03:51:56;;;;;;;69.22;48.80;;;3.80;99.90;;;;;;5045781;28;20049;-67
2022/01/25 03:54:22;;;;;;;65.78;47.42;;;3.80;99.90;;;;;;5042101;28;20123;-66
2022/01/25 03:56:47;;;;;;;68.85;49.10;;;3.80;99.90;;;;;;5039841;28;20238;-66
2022/01/25 03:59:14;;;;;;;69.20;48.35;;;3.80;99.90;;;;;;5041281;28;20128;-66
2022/01/25 04:01:39;;;;;;;69.13;48.28;;;3.80;99.90;;;;;;5040959;28;21389;-66
2022/01/25 04:04:10;;;;;;;69.30;48.92;;;3.80;99.90;;;;;;5036439;28;20409;-66
2022/01/25 04:06:37;;;;;;;66.70;48.05;;;3.80;99.90;;;;;;5040167;28;20032;-66
2022/01/25 04:09:08;;;;;;;69.72;48.45;;;3.80;99.90;;;;;;5038874;28;20041;-66
2022/01/25 04:11:34;;;;;;;70.00;49.45;;;3.80;99.90;;;;;;5042030;28;20484;-66
2022/01/25 04:14:01;;;;;;;69.47;48.85;;;3.90;99.90;;;;;;5040455;28;20116;-66
2022/01/25 04:16:35;;;;;;;71.38;48.40;;;3.80;99.90;;;;;;5040331;28;20071;-66
2022/01/25 04:19:09;;;;;;;66.17;46.10;;;3.80;99.90;;;;;;5045034;28;20048;-66
2022/01/25 04:26:46;;;;;;;66.55;47.13;;;3.80;99.90;;;;;;5044619;28;20047;-66
2022/01/25 04:29:12;;;;;;;67.32;47.13;;;3.70;99.90;;;;;;5043704;28;20056;-66
2022/01/25 04:31:38;;;;;;;65.35;46.33;;;3.80;99.90;;;;;;5044431;28;20045;-66
2022/01/25 04:34:12;;;;;;;68.28;47.05;;;3.80;99.90;;;;;;5043798;28;20047;-66
2022/01/25 04:50:04;;;;;;;68.40;45.90;;;3.80;99.90;;;;;;5042579;28;20460;-66
2022/01/25 04:52:35;;;;;;;65.85;45.85;;;3.70;99.90;;;;;;5043923;28;20469;-66
2022/01/25 04:55:13;;;;;;;66.00;45.50;;;3.80;99.90;;;;;;5042813;28;20120;-66
2022/01/25 04:57:49;;;;;;;65.10;45.40;;;3.80;99.90;;;;;;5041790;28;20045;-66
2022/01/25 05:00:21;;;;;;;66.20;45.95;;;3.80;99.90;;;;;;5042282;28;20163;-66
2022/01/25 05:02:53;;;;;;;67.68;46.70;;;3.70;99.90;;;;;;5044637;28;20037;-66
2022/01/25 05:05:30;;;;;;;68.03;45.60;;;3.80;99.90;;;;;;5041199;28;20062;-67
2022/01/25 05:08:18;;;;;;;65.80;46.13;;;3.80;99.90;;;;;;5040680;28;20037;-67
2022/01/25 05:10:54;;;;;;;65.15;43.60;;;3.80;99.90;;;;;;5043656;28;20040;-66
2022/01/25 05:13:42;;;;;;;62.45;43.90;;;3.80;99.90;;;;;;5040595;28;20033;-66
2022/01/25 05:16:27;;;;;;;62.15;43.17;;;3.80;99.90;;;;;;5054175;28;20106;-66
2022/01/25 05:19:03;;;;;;;66.82;45.38;;;3.80;99.90;;;;;;5041587;28;20065;-66
2022/01/25 05:24:15;;;;;;;67.63;44.90;;;3.80;99.90;;;;;;5042376;28;20540;-66
2022/01/25 05:26:40;;;;;;;69.15;45.03;;;3.80;99.90;;;;;;5039491;28;20037;-66
2022/01/25 05:29:07;;;;;;;63.22;43.92;;;3.80;99.90;;;;;;5041009;28;20056;-66
2022/01/25 05:31:33;;;;;;;63.25;42.17;;;3.80;99.90;;;;;;5037430;28;20087;-66
2022/01/25 05:33:59;;;;;;;64.32;44.70;;;3.80;99.90;;;;;;5039248;28;20045;-66
2022/01/25 05:36:30;;;;;;;63.45;43.95;;;3.70;99.90;;;;;;5038340;28;20110;-66
2022/01/25 05:39:09;;;;;;;66.68;45.35;;;3.80;99.90;;;;;;5037991;28;20098;-66
2022/01/25 05:41:40;;;;;;;67.85;45.00;;;3.70;99.90;;;;;;5037117;28;20052;-66
2022/01/25 05:47:03;;;;;;;64.70;45.58;;;3.70;99.90;;;;;;5040196;28;20453;-66
2022/01/25 05:49:28;;;;;;;64.47;44.33;;;3.70;99.90;;;;;;5044751;28;20067;-66
2022/01/25 05:51:54;;;;;;;63.42;44.38;;;3.70;99.90;;;;;;5046722;28;20478;-66
2022/01/25 05:54:20;;;;;;;66.05;44.42;;;3.70;99.90;;;;;;5043305;28;20080;-66
2022/01/25 05:56:45;;;;;;;67.35;46.90;;;3.70;99.90;;;;;;5044334;28;20063;-66
2022/01/25 05:59:11;;;;;;;67.05;45.70;;;3.70;99.90;;;;;;5043916;28;20412;-66
2022/01/25 06:01:37;;;;;;;65.60;45.88;;;3.70;99.90;;;;;;5042792;28;20061;-66
2022/01/25 06:04:03;;;;;;;67.43;45.03;;;3.80;99.90;;;;;;5046465;28;20637;-66
2022/01/25 06:06:29;;;;;;;67.45;45.40;;;3.70;99.90;;;;;;5042409;28;20037;-66
2022/01/25 06:08:56;;;;;;;68.35;46.42;;;3.70;99.90;;;;;;5042777;28;20401;-66
2022/01/25 06:11:22;;;;;;;65.35;45.47;;;3.70;99.90;;;;;;5045364;28;20072;-66
2022/01/25 06:13:48;;;;;;;66.65;45.22;;;3.70;99.90;;;;;;5041591;28;20059;-66
2022/01/25 06:16:14;;;;;;;68.55;45.80;;;3.80;99.90;;;;;;5043287;28;20052;-66
2022/01/25 06:18:40;;;;;;;68.05;45.13;;;3.70;99.90;;;;;;5040069;28;20401;-66
2022/01/25 06:21:05;;;;;;;63.53;43.78;;;3.70;99.90;;;;;;5043252;28;20125;-66
2022/01/25 06:23:31;;;;;;;69.15;44.47;;;3.70;99.90;;;;;;5045381;28;20032;-66
2022/01/25 06:25:57;;;;;;;64.85;44.25;;;3.70;99.90;;;;;;5042684;28;20040;-66
2022/01/25 06:28:23;;;;;;;63.92;43.83;;;3.70;99.90;;;;;;5038305;28;20525;-67
2022/01/25 06:30:49;;;;;;;65.97;43.90;;;3.70;99.90;;;;;;5047810;28;20152;-66
2022/01/25 06:33:15;;;;;;;68.65;45.45;;;3.70;99.90;;;;;;5041050;28;20090;-66
2022/01/25 06:35:42;;;;;;;66.72;44.75;;;3.70;99.90;;;;;;5046478;28;20033;-66
2022/01/25 06:38:07;;;;;;;61.97;43.83;;;3.70;99.90;;;;;;5044874;28;20044;-66
2022/01/25 06:40:33;;;;;;;66.65;45.78;;;3.70;99.90;;;;;;5039478;28;20398;-66
2022/01/25 06:42:59;;;;;;;67.07;45.15;;;3.70;99.90;;;;;;5040955;28;20511;-66
2022/01/25 06:45:26;;;;;;;63.50;43.65;;;3.70;99.90;;;;;;5037319;28;20115;-66
2022/01/25 06:47:52;;;;;;;65.78;45.35;;;3.70;99.90;;;;;;5045073;28;20469;-66
2022/01/25 06:50:20;;;;;;;64.50;44.60;;;3.70;99.90;;;;;;5036528;28;20044;-66
2022/01/25 06:52:46;;;;;;;66.57;45.92;;;3.70;99.90;;;;;;5043793;28;20059;-67
2022/01/25 06:55:14;;;;;;;69.35;44.75;;;3.70;99.90;;;;;;5041089;28;20033;-67
2022/01/25 06:57:41;;;;;;;70.72;44.75;;;3.70;99.90;;;;;;5038338;28;20580;-67
2022/01/25 07:00:11;;;;;;;67.07;44.47;;;3.70;99.90;;;;;;5040111;28;20512;-67
2022/01/25 07:02:36;;;;;;;69.18;44.30;;;3.70;99.90;;;;;;5039591;28;20056;-67
2022/01/25 07:05:03;;;;;;;64.38;43.78;;;3.70;99.90;;;;;;5040159;28;20160;-67
2022/01/25 07:07:29;;;;;;;66.85;45.35;;;3.80;99.90;;;;;;5038363;28;20460;-67
2022/01/25 07:09:56;;;;;;;67.72;44.65;;;3.80;99.90;;;;;;5040436;28;20041;-67
2022/01/25 07:12:22;;;;;;;66.22;44.10;;;3.70;99.90;;;;;;5038278;28;20056;-67
2022/01/25 07:14:48;;;;;;;65.40;43.63;;;3.80;99.90;;;;;;5038879;28;20110;-67
2022/01/25 07:17:14;;;;;;;69.50;46.15;;;3.80;99.90;;;;;;5036634;28;20405;-67
2022/01/25 07:19:39;;;;;;;64.32;43.38;;;3.80;99.90;;;;;;5029152;28;20532;-67
2022/01/25 07:22:05;;;;;;;66.05;43.80;;;3.70;99.90;;;;;;5042097;28;20045;-67
2022/01/25 07:24:32;;;;;;;66.40;44.97;;;3.70;99.90;;;;;;5042406;28;20041;-67
2022/01/25 07:26:57;;;;;;;67.97;44.45;;;3.70;99.90;;;;;;5040116;28;20124;-67
2022/01/25 07:29:23;;;;;;;69.03;46.33;;;3.70;99.90;;;;;;5042081;28;20071;-67
2022/01/25 07:31:49;;;;;;;66.63;44.80;;;3.70;99.90;;;;;;5038617;28;20044;-67
2022/01/25 07:34:15;;;;;;;64.68;43.80;;;3.70;99.90;;;;;;5034504;28;20041;-67
2022/01/25 07:36:42;;;;;;;66.20;44.38;;;3.70;99.90;;;;;;5041682;28;20044;-67
2022/01/25 07:39:09;;;;;;;66.22;43.72;;;3.70;99.90;;;;;;5041445;28;20063;-67
2022/01/25 07:41:35;;;;;;;66.88;43.35;;;3.70;99.90;;;;;;5022037;28;20361;-67
2022/01/25 07:44:01;;;;;;;63.88;43.03;;;3.70;99.90;;;;;;5038070;28;21225;-67
2022/01/25 07:46:28;;;;;;;65.20;43.45;;;3.70;99.90;;;;;;5041622;28;20037;-67
2022/01/25 07:48:53;;;;;;;65.15;43.28;;;3.80;99.90;;;;;;5044957;28;20041;-67
2022/01/25 07:51:19;;;;;;;67.28;45.38;;;3.70;99.90;;;;;;5039734;28;20073;-67
2022/01/25 07:53:45;;;;;;;65.65;44.70;;;3.80;99.90;;;;;;5038918;28;20118;-67
2022/01/25 07:56:11;;;;;;;65.50;44.42;;;3.80;99.90;;;;;;5037402;28;20044;-67
2022/01/25 07:58:37;;;;;;;62.55;40.80;;;3.70;99.90;;;;;;5040200;28;20546;-67
2022/01/25 08:01:04;;;;;;;63.40;42.70;;;3.70;99.90;;;;;;5042121;28;20044;-67
2022/01/25 08:03:30;;;;;;;66.70;44.72;;;3.70;99.90;;;;;;5042835;28;20529;-67
2022/01/25 08:05:56;;;;;;;64.15;43.10;;;3.80;99.90;;;;;;5044270;28;20052;-67
2022/01/25 08:08:22;;;;;;;70.22;43.58;;;3.80;99.90;;;;;;5035763;28;20048;-67
2022/01/25 08:10:48;;;;;;;64.97;42.47;;;3.80;99.90;;;;;;5046424;28;20055;-67
2022/01/25 08:13:14;;;;;;;67.80;43.72;;;3.80;99.90;;;;;;5041005;28;20117;-67
2022/01/25 08:15:40;;;;;;;72.07;45.38;;;3.70;99.90;;;;;;5039578;28;20164;-67
2022/01/25 08:18:06;;;;;;;68.15;43.50;;;3.70;99.90;;;;;;5017855;28;20053;-67
2022/01/25 08:20:32;;;;;;;64.45;44.63;;;3.80;99.90;;;;;;5039933;28;20045;-67
2022/01/25 08:22:58;;;;;;;61.28;41.40;;;3.80;99.90;;;;;;5035699;28;20045;-67
2022/01/25 08:25:23;;;;;;;65.03;42.85;;;3.80;99.90;;;;;;5043597;28;20392;-67
2022/01/25 08:27:49;;;;;;;64.40;43.05;;;3.80;99.90;;;;;;5042924;28;20037;-67
2022/01/25 08:30:15;;;;;;;67.13;43.45;;;3.70;99.90;;;;;;5037751;28;20049;-67
2022/01/25 08:32:42;;;;;;;66.43;43.35;;;3.80;99.90;;;;;;5038279;28;20138;-67
2022/01/25 08:35:09;;;;;;;62.15;42.28;;;3.80;99.90;;;;;;5037528;28;20110;-67
2022/01/25 08:37:35;;;;;;;60.80;41.17;;;3.80;99.90;;;;;;5036714;28;20061;-67
2022/01/25 08:40:03;;;;;;;65.85;43.22;;;3.80;99.90;;;;;;5044304;28;20111;-67
2022/01/25 08:42:28;;;;;;;61.40;40.90;;;3.80;99.90;;;;;;5040070;28;20057;-67
2022/01/25 08:44:54;;;;;;;63.15;42.13;;;3.80;99.90;;;;;;5039180;28;20404;-67
2022/01/25 08:47:20;;;;;;;65.18;42.72;;;3.90;99.90;;;;;;5039391;28;20033;-67
2022/01/25 08:49:46;;;;;;;65.97;42.22;;;3.90;99.90;;;;;;5040740;28;20113;-67
2022/01/25 08:52:11;;;;;;;67.25;43.03;;;3.90;99.90;;;;;;5040351;28;20470;-67
2022/01/25 08:54:37;;;;;;;67.07;43.92;;;3.90;99.90;;;;;;5046360;28;20467;-67
2022/01/25 08:57:03;;;;;;;65.22;43.05;;;3.80;99.90;;;;;;5039075;28;20048;-67
2022/01/25 08:59:29;;;;;;;62.83;42.83;;;3.90;99.90;;;;;;5047226;28;20044;-67
2022/01/25 09:01:55;;;;;;;63.90;42.83;;;3.90;99.90;;;;;;5043121;28;20123;-67
2022/01/25 09:04:21;;;;;;;67.55;43.42;;;3.90;99.90;;;;;;5043127;28;20040;-67
2022/01/25 09:06:47;;;;;;;64.50;42.17;;;3.90;99.90;;;;;;5044623;28;20041;-67
2022/01/25 09:09:13;;;;;;;66.88;43.47;;;3.90;99.90;;;;;;5048908;28;20051;-67
2022/01/25 09:11:41;;;;;;;65.80;43.30;;;3.90;99.90;;;;;;5044638;28;20037;-67
2022/01/25 09:14:08;;;;;;;67.53;45.35;;;3.90;99.90;;;;;;5041955;28;20033;-67
2022/01/25 09:16:34;;;;;;;65.45;43.50;;;3.90;99.90;;;;;;5046986;28;20037;-67
2022/01/25 09:19:00;;;;;;;64.63;41.85;;;3.90;99.90;;;;;;5041868;28;20056;-67
2022/01/25 09:21:26;;;;;;;67.70;44.83;;;4.00;99.90;;;;;;5047111;28;20049;-67
2022/01/25 09:23:52;;;;;;;66.18;42.88;;;4.00;99.90;;;;;;5045372;28;20107;-67
2022/01/25 09:26:18;;;;;;;66.00;42.00;;;4.00;99.90;;;;;;5047241;28;20064;-67
2022/01/25 09:28:44;;;;;;;65.47;43.00;;;4.00;99.90;;;;;;5046407;28;20079;-67
2022/01/25 09:31:10;;;;;;;64.45;41.78;;;4.00;99.90;;;;;;5046820;28;20067;-67
2022/01/25 09:33:35;;;;;;;64.30;42.25;;;4.00;99.90;;;;;;5041014;28;20065;-67
2022/01/25 09:36:02;;;;;;;67.15;43.58;;;4.00;99.90;;;;;;5046365;28;20045;-67
2022/01/25 09:38:28;;;;;;;62.60;42.90;;;4.00;99.90;;;;;;5043828;28;20041;-67
2022/01/25 09:40:54;;;;;;;70.78;45.22;;;4.10;99.90;;;;;;5046894;28;20094;-67
2022/01/25 09:43:21;;;;;;;66.75;43.83;;;4.00;99.90;;;;;;5024289;28;20063;-67
2022/01/25 09:45:47;;;;;;;64.68;41.83;;;4.00;99.90;;;;;;5043809;28;20102;-67
2022/01/25 09:48:15;;;;;;;64.75;43.20;;;4.10;99.90;;;;;;5043261;28;20048;-67
2022/01/25 09:50:41;;;;;;;68.18;44.78;;;4.10;99.90;;;;;;5044951;28;20062;-67
2022/01/25 09:53:08;;;;;;;61.83;41.60;;;4.10;99.90;;;;;;5039883;28;20081;-67
2022/01/25 09:55:36;;;;;;;66.70;43.00;;;4.10;99.90;;;;;;5046120;28;20116;-67
2022/01/25 09:58:03;;;;;;;66.70;43.75;;;4.10;99.90;;;;;;5046508;28;20646;-67
2022/01/25 10:00:31;;;;;;;69.60;43.20;;;4.10;99.90;;;;;;5041951;28;20097;-67
2022/01/25 10:03:13;;;;;;;66.40;42.40;;;4.10;99.90;;;;;;5038645;28;20075;-67
2022/01/25 10:05:42;;;;;;;63.05;42.25;;;4.20;99.90;;;;;;5044745;28;20155;-67
2022/01/25 10:08:12;;;;;;;69.13;43.50;;;4.20;99.90;;;;;;5042287;28;20068;-67
2022/01/25 10:10:41;;;;;;;63.60;42.22;;;4.20;99.90;;;;;;5043383;28;20486;-67
2022/01/25 10:13:27;;;;;;;62.38;41.35;;;4.20;99.90;;;;;;5042222;28;20083;-67
2022/01/25 10:16:15;;;;;;;66.30;42.83;;;4.20;99.90;;;;;;5041359;28;20494;-67
2022/01/25 10:18:53;;;;;;;67.00;43.20;;;4.20;99.90;;;;;;5043222;28;20084;-67
2022/01/25 10:21:26;;;;;;;69.78;44.83;;;4.20;99.90;;;;;;5040064;28;20120;-67
2022/01/25 10:24:13;;;;;;;67.65;42.63;;;4.30;99.90;;;;;;5039712;28;20116;-65
2022/01/25 10:26:43;;;;;;;67.30;43.60;;;4.30;99.90;;;;;;5034873;28;20111;-66
2022/01/25 10:29:14;;;;;;;72.75;44.83;;;4.30;99.90;;;;;;5038799;28;20512;-66
2022/01/25 10:31:44;;;;;;;67.47;42.88;;;4.30;99.90;;;;;;5038118;28;20069;-66
2022/01/25 10:34:13;;;;;;;69.47;44.30;;;4.30;99.90;;;;;;5033420;28;20057;-66
2022/01/25 10:36:43;;;;;;;65.82;42.80;;;4.30;99.90;;;;;;5034353;28;20612;-66
2022/01/25 10:39:09;;;;;;;66.60;43.63;;;4.30;99.90;;;;;;5040651;28;20045;-66
2022/01/25 10:41:35;;;;;;;69.30;45.20;;;4.30;99.90;;;;;;5041984;28;20133;-66
2022/01/25 10:44:01;;;;;;;68.50;42.95;;;4.30;99.90;;;;;;5040173;28;20045;-66
2022/01/25 10:46:29;;;;;;;66.53;44.20;;;4.40;99.90;;;;;;5040832;28;20124;-66
2022/01/25 10:49:00;;;;;;;64.78;41.90;;;4.40;99.90;;;;;;5037831;28;20090;-66
2022/01/25 10:51:35;;;;;;;67.60;43.95;;;4.40;99.90;;;;;;5041071;28;20033;-66
2022/01/25 10:54:21;;;;;;;65.82;44.33;;;4.40;99.90;;;;;;5040385;28;20094;-66
2022/01/25 10:56:57;;;;;;;63.80;42.45;;;4.40;99.90;;;;;;5037236;28;20441;-66
2022/01/25 10:59:33;;;;;;;67.15;44.25;;;4.40;99.90;;;;;;5035695;28;20049;-66
2022/01/25 11:02:02;;;;;;;69.68;43.00;;;4.40;99.90;;;;;;5034793;28;20065;-66
2022/01/25 11:04:34;;;;;;;69.70;42.67;;;4.50;99.90;;;;;;5042989;28;20045;-66
2022/01/25 11:07:11;;;;;;;68.47;43.25;;;4.50;99.90;;;;;;5040728;28;20559;-66
2022/01/25 11:09:45;;;;;;;67.65;43.75;;;4.50;99.90;;;;;;5039863;28;20401;-66
2022/01/25 11:12:15;;;;;;;66.32;43.20;;;4.50;99.90;;;;;;5038318;28;20089;-66
2022/01/25 11:14:50;;;;;;;67.80;43.50;;;4.50;99.90;;;;;;5041517;28;20037;-66
2022/01/25 11:17:27;;;;;;;67.15;43.25;;;4.50;99.90;;;;;;5036463;28;20044;-66
2022/01/25 11:19:53;;;;;;;65.70;43.42;;;4.60;99.90;;;;;;5039587;28;20041;-66
2022/01/25 11:22:20;;;;;;;66.13;42.90;;;4.50;99.90;;;;;;5037248;28;20611;-66
2022/01/25 11:24:50;;;;;;;63.63;42.33;;;4.60;99.90;;;;;;5037691;28;20069;-66
2022/01/25 11:27:17;;;;;;;69.63;44.13;;;4.60;99.90;;;;;;5041034;28;20365;-66
2022/01/25 11:29:45;;;;;;;68.15;43.13;;;4.60;99.90;;;;;;5034744;28;20051;-66
2022/01/25 11:32:19;;;;;;;68.70;43.13;;;4.60;99.90;;;;;;5040081;28;20252;-66
2022/01/25 11:34:45;;;;;;;;;;;4.60;99.90;;;;;;5036397;28;20493;-66
2022/01/25 11:37:12;;;;;;;68.65;42.70;;;4.60;99.90;;;;;;5042023;28;19917;-66
2022/01/25 11:39:44;;;;;;;67.05;44.10;;;4.60;99.90;;;;;;5035311;28;20038;-66
2022/01/25 11:42:23;;;;;;;66.63;42.05;;;4.60;99.90;;;;;;5039495;28;20073;-66
2022/01/25 11:44:57;;;;;;;64.43;40.60;;;4.60;99.90;;;;;;5040734;28;20064;-67
2022/01/25 11:47:34;;;;;;;65.65;41.63;;;4.60;99.90;;;;;;5045163;28;20053;-67
2022/01/25 11:50:07;;;;;;;67.05;43.88;;;4.60;99.90;;;;;;5037739;28;20125;-67
2022/01/25 11:52:33;;;;;;;66.03;41.58;;;4.70;99.90;;;;;;5039534;28;20396;-67
2022/01/25 11:55:22;;;;;;;66.25;42.08;;;4.70;99.90;;;;;;5037610;28;20044;-67
2022/01/25 11:57:54;;;;;;;69.00;43.88;;;4.70;99.90;;;;;;5035449;28;20041;-67
2022/01/25 12:00:22;;;;;;;64.75;40.90;;;4.70;99.90;;;;;;5035133;28;20540;-67
2022/01/25 12:02:50;;;;;;;63.80;41.92;;;4.70;99.90;;;;;;5044150;28;20110;-67
2022/01/25 12:05:26;;;;;;;66.30;43.17;;;4.70;99.90;;;;;;5032907;28;20082;-67
2022/01/25 12:08:10;;;;;;;63.97;41.50;;;4.70;99.90;;;;;;5037165;28;20052;-67
2022/01/25 12:10:46;;;;;;;69.82;44.47;;;4.70;99.90;;;;;;5036811;28;20029;-67
2022/01/25 12:13:16;;;;;;;66.25;44.05;;;4.70;99.90;;;;;;5035704;28;20817;-67
2022/01/25 12:15:43;;;;;;;65.65;42.08;;;4.70;99.90;;;;;;5032157;28;20037;-67
2022/01/25 12:18:30;;;;;;;64.25;40.55;;;4.80;99.90;;;;;;5041550;28;20080;-67
2022/01/25 12:20:56;;;;;;;68.97;41.70;;;4.80;99.90;;;;;;5041318;28;20130;-67
2022/01/25 12:23:44;;;;;;;63.50;40.65;;;4.70;99.90;;;;;;5039043;28;20103;-67
2022/01/25 12:26:15;;;;;;;64.95;41.50;;;4.80;99.90;;;;;;5038370;28;20044;-67
2022/01/25 12:28:46;;;;;;;64.70;41.38;;;4.80;99.90;;;;;;5038722;28;20078;-67
2022/01/25 12:31:17;;;;;;;64.63;40.40;;;4.80;99.90;;;;;;5039484;28;20029;-67
2022/01/25 12:33:45;;;;;;;64.75;42.35;;;4.80;99.90;;;;;;5042907;28;20108;-67
2022/01/25 12:36:11;;;;;;;63.80;41.15;;;4.80;99.90;;;;;;5036116;28;20037;-65
2022/01/25 12:38:43;;;;;;;68.78;43.75;;;4.80;99.90;;;;;;5035357;28;20069;-65
2022/01/25 12:41:17;;;;;;;65.13;43.00;;;4.80;99.90;;;;;;5045158;28;20452;-66
2022/01/25 12:43:44;;;;;;;64.18;40.72;;;4.80;99.90;;;;;;5037645;28;20041;-66
2022/01/25 12:46:18;;;;;;;68.35;42.53;;;4.80;99.90;;;;;;5047140;28;20477;-66
2022/01/25 12:49:00;;;;;;;66.17;40.50;;;4.80;99.90;;;;;;5046743;28;20041;-66
2022/01/25 12:51:29;;;;;;;63.25;41.25;;;4.80;99.90;;;;;;5043474;28;20407;-66
2022/01/25 12:53:56;;;;;;;61.40;40.75;;;4.80;99.90;;;;;;5043790;28;20057;-66
2022/01/25 12:56:25;;;;;;;68.03;41.70;;;4.80;99.90;;;;;;5038456;28;20140;-66
2022/01/25 12:58:57;;;;;;;69.22;41.35;;;4.70;99.90;;;;;;5039840;28;20051;-66
2022/01/25 13:01:26;;;;;;;67.60;43.50;;;4.70;99.90;;;;;;5044467;28;20037;-66
2022/01/25 13:03:55;;;;;;;72.00;41.30;;;4.70;99.90;;;;;;5046246;28;20071;-66
2022/01/25 13:06:54;;;;;;;70.38;42.17;;;4.70;99.90;;;;;;5042432;28;20071;-66
2022/01/25 13:09:38;;;;;;;64.13;39.70;;;4.70;99.90;;;;;;5038465;28;20049;-66
2022/01/25 13:17:07;;;;;;;67.60;40.95;;;4.70;99.90;;;;;;5043663;28;20169;-66
2022/01/25 13:19:38;;;;;;;64.63;41.05;;;4.70;99.90;;;;;;5038882;28;20088;-66
2022/01/25 13:22:11;;;;;;;64.30;39.90;;;4.70;99.90;;;;;;5036569;28;20053;-67
2022/01/25 13:24:57;;;;;;;67.53;40.85;;;4.70;99.90;;;;;;5044526;28;20428;-67
2022/01/25 13:27:28;;;;;;;68.38;40.85;;;4.70;99.90;;;;;;5040846;28;20045;-67
2022/01/25 13:32:43;;;;;;;62.63;39.00;;;4.70;99.90;;;;;;5035774;28;20583;-67
2022/01/25 13:35:29;;;;;;;66.15;41.30;;;4.70;99.90;;;;;;5038647;28;20044;-67
2022/01/25 13:38:19;;;;;;;59.95;38.63;;;4.70;99.90;;;;;;5038661;28;20120;-67
2022/01/25 13:45:57;;;;;;;65.72;39.17;;;4.70;99.90;;;;;;5039444;28;20053;-67
2022/01/25 13:48:26;;;;;;;61.55;39.08;;;4.70;99.90;;;;;;5044230;28;20057;-67
2022/01/25 13:50:57;;;;;;;58.40;39.20;;;4.70;99.90;;;;;;5042221;28;20048;-67
2022/01/25 13:53:24;;;;;;;62.80;38.20;;;4.70;99.90;;;;;;5034789;28;20416;-67
2022/01/25 13:55:52;;;;;;;64.70;39.17;;;4.70;99.90;;;;;;5043177;28;20040;-67
2022/01/25 13:58:23;;;;;;;63.45;40.00;;;4.70;99.90;;;;;;5041512;28;20048;-67
2022/01/25 14:00:49;;;;;;;66.38;40.53;;;4.70;99.90;;;;;;5040313;28;20393;-67
2022/01/25 14:03:16;;;;;;;64.13;40.22;;;4.60;99.90;;;;;;5043767;28;20090;-67
2022/01/25 14:05:42;;;;;;;63.33;38.85;;;4.60;99.90;;;;;;5041979;28;20037;-67
2022/01/25 14:08:11;;;;;;;62.53;39.70;;;4.60;99.90;;;;;;5040530;28;20468;-67
2022/01/25 14:10:42;;;;;;;65.97;40.30;;;4.60;99.90;;;;;;5041156;28;20076;-67
2022/01/25 14:21:56;;;;;;;66.45;39.53;;;4.50;99.90;;;;;;5043286;28;20044;-67
2022/01/25 14:24:32;;;;;;;64.88;39.25;;;4.50;99.90;;;;;;5040131;28;20409;-67
2022/01/25 14:26:58;;;;;;;65.03;38.70;;;4.60;99.90;;;;;;5037920;28;20057;-67
2022/01/25 14:29:24;;;;;;;62.35;39.33;;;4.60;99.90;;;;;;5035720;28;20037;-67
2022/01/25 14:31:50;;;;;;;63.10;38.97;;;4.60;99.90;;;;;;5044033;28;20036;-67
2022/01/25 14:34:18;;;;;;;65.93;40.38;;;4.50;99.90;;;;;;5028589;28;20041;-67
2022/01/25 14:36:47;;;;;;;66.43;39.65;;;4.50;99.90;;;;;;5034551;28;20374;-67
2022/01/25 14:39:15;;;;;;;58.42;37.85;;;4.50;99.90;;;;;;5034790;28;20091;-67
2022/01/25 14:41:41;;;;;;;64.25;38.63;;;4.50;99.90;;;;;;5038238;28;20085;-67
2022/01/25 14:44:22;;;;;;;61.05;36.85;;;4.40;99.90;;;;;;5037298;28;20048;-67
2022/01/25 14:46:52;;;;;;;63.88;37.97;;;4.40;99.90;;;;;;5034658;28;20350;-67
2022/01/25 14:49:28;;;;;;;65.82;39.65;;;4.40;99.90;;;;;;5041983;28;20124;-67